createdAt,value
2022-10-23T00:01:38.861Z,17.62
2022-10-23T00:04:13.919Z,17.70
2022-10-23T00:06:42.451Z,17.71
2022-10-23T00:09:12.621Z,17.86
2022-10-23T00:11:41.472Z,17.78
2022-10-23T00:14:09.157Z,17.65
2022-10-23T00:16:37.652Z,17.90
2022-10-23T00:19:05.780Z,17.87
2022-10-23T00:21:33.083Z,17.87
2022-10-23T00:24:00.525Z,17.83
2022-10-23T00:26:28.409Z,18.06
2022-10-23T00:28:56.387Z,18.23
2022-10-23T00:31:24.850Z,17.99
2022-10-23T00:33:53.426Z,18.08
2022-10-23T00:36:22.044Z,18.10
2022-10-23T00:38:51.253Z,18.02
2022-10-23T00:41:24.924Z,17.97
2022-10-23T00:43:55.843Z,18.11
2022-10-23T00:46:23.080Z,18.07
2022-10-23T00:48:51.091Z,18.12
2022-10-23T00:51:18.768Z,18.12
2022-10-23T00:54:00.952Z,17.97
2022-10-23T00:56:39.701Z,18.04
2022-10-23T00:59:07.485Z,17.98
2022-10-23T01:01:35.089Z,18.05
2022-10-23T01:04:05.333Z,18.04
2022-10-23T01:06:37.963Z,18.05
2022-10-23T01:09:12.863Z,17.95
2022-10-23T01:11:58.340Z,17.96
2022-10-23T01:14:42.817Z,17.95
2022-10-23T01:17:42.309Z,17.83
2022-10-23T01:20:45.823Z,17.72
2022-10-23T01:23:13.027Z,17.74
2022-10-23T01:25:54.861Z,17.91
2022-10-23T01:28:40.223Z,17.78
2022-10-23T01:31:14.507Z,18.02
2022-10-23T01:33:57.893Z,17.92
2022-10-23T01:36:31.617Z,17.95
2022-10-23T01:39:15.052Z,18.09
2022-10-23T01:41:55.581Z,17.86
2022-10-23T01:44:34.749Z,18.18
2022-10-23T01:47:05.679Z,18.00
2022-10-23T01:49:40.893Z,18.06
2022-10-23T01:52:13.325Z,18.22
2022-10-23T01:54:45.490Z,18.18
2022-10-23T01:57:16.832Z,18.04
2022-10-23T01:59:51.893Z,18.18
2022-10-23T02:02:22.720Z,18.02
2022-10-23T02:05:02.259Z,18.04
2022-10-23T02:07:30.313Z,17.92
2022-10-23T02:09:59.152Z,17.84
2022-10-23T02:12:32.946Z,17.92
2022-10-23T02:15:09.116Z,17.93
2022-10-23T02:17:58.208Z,18.07
2022-10-23T02:20:34.605Z,17.91
2022-10-23T02:23:13.263Z,17.95
2022-10-23T02:26:15.746Z,17.95
2022-10-23T02:28:52.228Z,17.80
2022-10-23T02:31:23.072Z,17.72
2022-10-23T02:33:50.933Z,17.73
2022-10-23T02:36:19.418Z,17.78
2022-10-23T02:38:46.694Z,17.51
2022-10-23T02:41:13.941Z,17.42
2022-10-23T02:44:02.230Z,17.46
2022-10-23T02:47:10.840Z,17.30
2022-10-23T02:50:15.541Z,17.35
2022-10-23T02:53:18.150Z,17.48
2022-10-23T02:56:07.980Z,17.39
2022-10-23T02:59:27.722Z,17.46
2022-10-23T03:02:02.743Z,17.33
2022-10-23T03:04:31.939Z,17.26
2022-10-23T03:06:59.805Z,17.25
2022-10-23T03:09:27.395Z,17.20
2022-10-23T03:11:55.157Z,17.13
2022-10-23T03:14:22.521Z,17.42
2022-10-23T03:16:50.981Z,17.05
2022-10-23T03:19:18.242Z,17.02
2022-10-23T03:21:45.482Z,17.14
2022-10-23T03:24:12.953Z,17.24
2022-10-23T03:26:43.268Z,17.19
2022-10-23T03:29:10.828Z,17.02
2022-10-23T03:31:43.984Z,16.84
2022-10-23T03:34:11.585Z,16.88
2022-10-23T03:36:41.194Z,16.96
2022-10-23T03:39:10.230Z,16.82
2022-10-23T03:41:37.885Z,16.86
2022-10-23T03:46:37.958Z,16.96
2022-10-23T03:49:05.698Z,17.01
2022-10-23T03:51:33.100Z,17.03
2022-10-23T03:54:00.447Z,17.07
2022-10-23T03:56:28.268Z,17.02
2022-10-23T03:58:55.539Z,17.10
2022-10-23T04:01:26.371Z,17.17
2022-10-23T04:03:53.756Z,17.13
2022-10-23T04:06:21.273Z,17.15
2022-10-23T04:08:49.260Z,17.28
2022-10-23T04:11:18.720Z,17.25
2022-10-23T04:13:47.299Z,17.20
2022-10-23T04:16:15.510Z,17.13
2022-10-23T04:18:45.264Z,17.24
2022-10-23T04:21:13.131Z,17.18
2022-10-23T04:23:40.472Z,17.20
2022-10-23T04:26:13.667Z,17.34
2022-10-23T04:28:41.023Z,17.36
2022-10-23T04:31:08.270Z,17.25
2022-10-23T04:33:35.999Z,17.01
2022-10-23T04:36:03.411Z,17.19
2022-10-23T04:38:31.257Z,17.19
2022-10-23T04:40:58.768Z,17.06
2022-10-23T04:43:26.569Z,17.18
2022-10-23T04:45:54.393Z,17.24
2022-10-23T04:48:25.505Z,17.08
2022-10-23T04:51:14.211Z,17.02
2022-10-23T04:54:10.513Z,17.01
2022-10-23T04:57:04.586Z,17.25
2022-10-23T04:59:48.637Z,17.19
2022-10-23T05:02:15.897Z,17.00
2022-10-23T05:04:43.242Z,17.04
2022-10-23T05:07:40.859Z,16.96
2022-10-23T05:10:34.560Z,17.00
2022-10-23T05:13:07.961Z,17.05
2022-10-23T05:15:36.093Z,17.08
2022-10-23T05:18:21.729Z,17.10
2022-10-23T05:20:52.030Z,17.07
2022-10-23T05:23:24.881Z,17.04
2022-10-23T05:25:57.235Z,17.05
2022-10-23T05:28:24.500Z,16.96
2022-10-23T05:30:52.234Z,17.06
2022-10-23T05:33:25.924Z,17.00
2022-10-23T05:35:53.559Z,17.06
2022-10-23T05:38:23.257Z,17.00
2022-10-23T05:40:54.309Z,16.94
2022-10-23T05:43:23.485Z,16.79
2022-10-23T05:46:04.918Z,16.81
2022-10-23T05:48:35.430Z,16.66
2022-10-23T05:51:23.091Z,16.78
2022-10-23T05:54:16.200Z,16.70
2022-10-23T05:56:49.241Z,16.72
2022-10-23T05:59:23.095Z,16.72
2022-10-23T06:02:11.110Z,16.79
2022-10-23T06:04:49.654Z,16.75
2022-10-23T06:07:43.968Z,16.88
2022-10-23T06:10:12.000Z,16.83
2022-10-23T06:12:44.887Z,16.98
2022-10-23T06:15:15.812Z,17.00
2022-10-23T06:18:01.912Z,16.94
2022-10-23T06:20:30.996Z,17.11
2022-10-23T06:23:08.693Z,17.17
2022-10-23T06:26:13.874Z,17.23
2022-10-23T06:28:53.161Z,17.32
2022-10-23T06:31:23.780Z,17.51
2022-10-23T06:33:53.121Z,17.28
2022-10-23T06:36:20.483Z,17.39
2022-10-23T06:38:49.644Z,17.43
2022-10-23T06:41:18.950Z,17.63
2022-10-23T06:43:51.460Z,17.71
2022-10-23T06:46:26.915Z,17.68
2022-10-23T06:49:33.684Z,17.78
2022-10-23T06:52:03.039Z,17.93
2022-10-23T06:54:30.817Z,18.00
2022-10-23T06:57:22.047Z,17.96
2022-10-23T06:59:50.265Z,18.03
2022-10-23T07:02:18.794Z,18.05
2022-10-23T07:04:50.850Z,18.12
2022-10-23T07:07:20.244Z,18.18
2022-10-23T07:09:49.627Z,18.23
2022-10-23T07:12:36.287Z,18.26
2022-10-23T07:15:27.900Z,18.29
2022-10-23T07:17:55.646Z,18.25
2022-10-23T07:20:24.695Z,18.35
2022-10-23T07:22:54.377Z,18.48
2022-10-23T07:25:28.779Z,18.45
2022-10-23T07:27:56.606Z,18.35
2022-10-23T07:30:26.109Z,18.32
2022-10-23T07:32:56.123Z,18.23
2022-10-23T07:35:41.102Z,18.45
2022-10-23T07:38:14.569Z,18.52
2022-10-23T07:40:48.067Z,18.59
2022-10-23T07:43:18.779Z,18.65
2022-10-23T07:45:48.396Z,19.00
2022-10-23T07:48:36.283Z,19.12
2022-10-23T07:51:08.460Z,19.13
2022-10-23T07:53:40.859Z,19.37
2022-10-23T07:56:26.084Z,19.29
2022-10-23T07:59:13.500Z,19.34
2022-10-23T08:01:43.217Z,19.37
2022-10-23T08:04:11.299Z,19.47
2022-10-23T08:06:47.708Z,19.64
2022-10-23T08:09:15.445Z,19.47
2022-10-23T08:11:43.729Z,19.53
2022-10-23T08:14:15.443Z,19.69
2022-10-23T08:16:44.928Z,19.87
2022-10-23T08:19:32.738Z,19.90
2022-10-23T08:22:03.768Z,19.94
2022-10-23T08:24:31.337Z,20.26
2022-10-23T08:26:59.380Z,20.06
2022-10-23T08:29:28.415Z,20.35
2022-10-23T08:31:57.359Z,20.29
2022-10-23T08:34:28.873Z,20.43
2022-10-23T08:36:57.164Z,20.36
2022-10-23T08:39:24.913Z,20.25
2022-10-23T08:42:04.615Z,20.41
2022-10-23T08:44:47.420Z,20.23
2022-10-23T08:47:29.942Z,20.46
2022-10-23T08:50:43.298Z,20.71
2022-10-23T08:53:28.331Z,20.60
2022-10-23T08:56:06.804Z,20.71
2022-10-23T08:58:56.725Z,20.87
2022-10-23T09:01:31.964Z,20.36
2022-10-23T09:04:01.304Z,20.75
2022-10-23T09:06:45.895Z,20.83
2022-10-23T09:09:19.133Z,21.01
2022-10-23T09:12:12.856Z,20.97
2022-10-23T09:14:58.748Z,21.17
2022-10-23T09:17:29.822Z,21.43
2022-10-23T09:20:21.235Z,21.27
2022-10-23T09:22:59.119Z,21.30
2022-10-23T09:25:31.059Z,21.64
2022-10-23T09:28:01.484Z,21.76
2022-10-23T09:30:36.360Z,21.35
2022-10-23T09:33:24.795Z,21.57
2022-10-23T09:35:55.161Z,21.50
2022-10-23T09:38:36.561Z,21.65
2022-10-23T09:41:16.075Z,21.54
2022-10-23T09:43:44.401Z,21.32
2022-10-23T09:46:13.177Z,21.65
2022-10-23T09:48:42.342Z,21.46
2022-10-23T09:51:18.295Z,21.75
2022-10-23T09:54:00.928Z,21.41
2022-10-23T09:56:40.128Z,21.46
2022-10-23T09:59:14.068Z,21.72
2022-10-23T10:01:54.614Z,21.97
2022-10-23T10:04:48.321Z,22.22
2022-10-23T10:07:24.961Z,22.29
2022-10-23T10:09:57.585Z,22.47
2022-10-23T10:12:48.921Z,22.08
2022-10-23T10:15:47.543Z,22.32
2022-10-23T10:18:31.280Z,22.58
2022-10-23T10:21:10.626Z,22.65
2022-10-23T10:23:55.909Z,22.99
2022-10-23T10:26:40.688Z,23.01
2022-10-23T10:29:30.762Z,22.29
2022-10-23T10:32:36.777Z,22.68
2022-10-23T10:35:22.812Z,22.54
2022-10-23T10:38:28.839Z,22.39
2022-10-23T10:41:35.557Z,22.91
2022-10-23T10:44:40.119Z,23.06
2022-10-23T10:47:29.377Z,22.89
2022-10-23T10:50:23.982Z,23.71
2022-10-23T10:53:10.128Z,23.80
2022-10-23T10:55:40.875Z,23.98
2022-10-23T10:58:19.027Z,23.96
2022-10-23T11:00:53.204Z,24.05
2022-10-23T11:03:40.364Z,24.22
2022-10-23T11:06:15.048Z,24.16
2022-10-23T11:08:57.740Z,24.30
2022-10-23T11:11:40.598Z,24.32
2022-10-23T11:14:20.912Z,24.38
2022-10-23T11:16:51.006Z,23.97
2022-10-23T11:19:24.844Z,24.33
2022-10-23T11:21:56.297Z,24.31
2022-10-23T11:24:49.034Z,24.66
2022-10-23T11:27:42.914Z,24.38
2022-10-23T11:30:19.195Z,24.37
2022-10-23T11:33:07.887Z,24.86
2022-10-23T11:35:55.061Z,24.77
2022-10-23T11:38:29.674Z,24.97
2022-10-23T11:41:04.594Z,24.84
2022-10-23T11:43:48.807Z,24.32
2022-10-23T11:46:22.185Z,24.07
2022-10-23T11:48:50.869Z,24.26
2022-10-23T11:51:30.235Z,24.30
2022-10-23T11:54:15.407Z,23.96
2022-10-23T11:57:10.947Z,24.00
2022-10-23T11:59:52.407Z,23.77
2022-10-23T12:02:52.777Z,24.04
2022-10-23T12:05:40.428Z,23.97
2022-10-23T12:08:22.549Z,23.92
2022-10-23T12:10:52.828Z,23.95
2022-10-23T12:13:38.340Z,23.90
2022-10-23T12:16:09.698Z,23.83
2022-10-23T12:18:52.874Z,23.89
2022-10-23T12:21:28.588Z,23.76
2022-10-23T12:24:22.878Z,23.86
2022-10-23T12:27:05.314Z,24.28
2022-10-23T12:29:59.458Z,24.33
2022-10-23T12:32:52.366Z,24.34
2022-10-23T12:35:47.597Z,24.36
2022-10-23T12:38:16.674Z,24.52
2022-10-23T12:40:53.833Z,24.62
2022-10-23T12:43:31.227Z,24.70
2022-10-23T12:46:26.005Z,24.57
2022-10-23T12:48:54.970Z,24.63
2022-10-23T12:51:32.407Z,24.85
2022-10-23T12:54:01.123Z,24.68
2022-10-23T12:56:35.555Z,24.47
2022-10-23T12:59:05.326Z,24.54
2022-10-23T13:01:35.052Z,24.28
2022-10-23T13:04:21.542Z,24.55
2022-10-23T13:06:50.038Z,24.63
2022-10-23T13:09:38.440Z,24.77
2022-10-23T13:12:29.386Z,24.86
2022-10-23T13:15:14.068Z,24.80
2022-10-23T13:17:48.448Z,24.97
2022-10-23T13:20:18.765Z,25.43
2022-10-23T13:22:57.736Z,25.37
2022-10-23T13:25:31.386Z,25.68
2022-10-23T13:28:22.413Z,25.83
2022-10-23T13:31:12.617Z,26.14
2022-10-23T13:33:44.868Z,25.56
2022-10-23T13:36:14.928Z,26.00
2022-10-23T13:38:44.855Z,25.49
2022-10-23T13:41:20.005Z,25.25
2022-10-23T13:43:48.805Z,25.14
2022-10-23T13:46:18.327Z,25.24
2022-10-23T13:48:46.646Z,25.41
2022-10-23T13:51:16.297Z,26.05
2022-10-23T13:53:43.587Z,26.50
2022-10-23T13:56:13.365Z,27.07
2022-10-23T13:58:40.916Z,27.22
2022-10-23T14:01:22.162Z,27.71
2022-10-23T14:03:51.211Z,28.34
2022-10-23T14:06:19.354Z,28.57
2022-10-23T14:08:47.592Z,28.42
2022-10-23T14:11:17.048Z,27.54
2022-10-23T14:13:44.580Z,27.31
2022-10-23T14:16:14.752Z,27.29
2022-10-23T14:18:42.387Z,27.31
2022-10-23T14:21:12.486Z,27.11
2022-10-23T14:23:39.800Z,26.90
2022-10-23T14:26:10.820Z,26.86
2022-10-23T14:28:38.619Z,26.85
2022-10-23T14:31:10.990Z,26.63
2022-10-23T14:33:39.269Z,26.50
2022-10-23T14:36:07.929Z,26.31
2022-10-23T14:38:35.405Z,26.33
2022-10-23T14:41:03.200Z,26.09
2022-10-23T14:43:30.466Z,26.12
2022-10-23T14:45:57.677Z,26.13
2022-10-23T14:48:25.081Z,26.12
2022-10-23T14:50:53.372Z,25.91
2022-10-23T14:53:21.223Z,25.66
2022-10-23T14:55:48.828Z,25.68
2022-10-23T14:58:16.113Z,25.74
2022-10-23T15:00:43.377Z,25.46
2022-10-23T15:03:10.841Z,25.10
2022-10-23T15:05:42.831Z,24.84
2022-10-23T15:08:10.223Z,24.76
2022-10-23T15:10:39.241Z,24.48
2022-10-23T15:13:06.927Z,24.26
2022-10-23T15:15:34.208Z,24.50
2022-10-23T15:18:01.967Z,24.34
2022-10-23T15:20:29.311Z,24.18
2022-10-23T15:22:56.632Z,24.23
2022-10-23T15:25:23.941Z,24.15
2022-10-23T15:27:51.157Z,24.24
2022-10-23T15:30:18.953Z,24.22
2022-10-23T15:32:47.060Z,24.12
2022-10-23T15:35:14.349Z,24.09
2022-10-23T15:37:41.987Z,23.93
2022-10-23T15:40:09.898Z,23.89
2022-10-23T15:42:37.541Z,23.61
2022-10-23T15:45:05.288Z,23.44
2022-10-23T15:47:32.520Z,23.42
2022-10-23T15:49:59.929Z,23.38
2022-10-23T15:52:27.265Z,23.16
2022-10-23T15:54:54.601Z,23.20
2022-10-23T15:57:21.939Z,23.10
2022-10-23T15:59:50.967Z,22.89
2022-10-23T16:02:18.992Z,22.77
2022-10-23T16:04:46.909Z,22.57
2022-10-23T16:07:14.564Z,22.48
2022-10-23T16:09:41.820Z,22.38
2022-10-23T16:12:09.868Z,22.21
2022-10-23T16:14:38.807Z,22.04
2022-10-23T16:17:07.650Z,21.76
2022-10-23T16:19:35.358Z,21.67
2022-10-23T16:22:03.329Z,21.47
2022-10-23T16:24:31.743Z,21.43
2022-10-23T16:26:59.663Z,21.41
2022-10-23T16:29:28.519Z,21.34
2022-10-23T16:31:57.001Z,21.21
2022-10-23T16:34:24.735Z,21.22
2022-10-23T16:36:52.168Z,21.14
2022-10-23T16:39:38.255Z,21.00
2022-10-23T16:42:24.184Z,21.01
2022-10-23T16:45:04.260Z,20.95
2022-10-23T16:47:32.389Z,21.03
2022-10-23T16:50:00.510Z,21.06
2022-10-23T16:52:28.695Z,21.07
2022-10-23T16:54:56.106Z,20.86
2022-10-23T16:57:27.214Z,20.84
2022-10-23T16:59:54.641Z,20.75
2022-10-23T17:02:22.841Z,20.74
2022-10-23T17:04:50.299Z,20.61
2022-10-23T17:07:18.274Z,20.61
2022-10-23T17:09:49.039Z,20.51
2022-10-23T17:12:17.533Z,20.48
2022-10-23T17:14:45.183Z,20.40
2022-10-23T17:17:12.430Z,20.52
2022-10-23T17:19:45.955Z,20.46
2022-10-23T17:22:13.744Z,20.29
2022-10-23T17:24:44.202Z,20.30
2022-10-23T17:27:14.224Z,20.35
2022-10-23T17:29:41.879Z,20.27
2022-10-23T17:32:09.249Z,20.29
2022-10-23T17:34:36.839Z,20.18
2022-10-23T17:37:04.219Z,20.26
2022-10-23T17:39:31.503Z,20.27
2022-10-23T17:41:59.728Z,20.23
2022-10-23T17:44:29.118Z,20.08
2022-10-23T17:46:56.965Z,19.97
2022-10-23T17:49:25.348Z,20.15
2022-10-23T17:51:55.025Z,19.97
2022-10-23T17:54:24.045Z,19.91
2022-10-23T17:56:51.778Z,19.66
2022-10-23T17:59:19.679Z,19.65
2022-10-23T18:01:48.624Z,19.37
2022-10-23T18:04:19.354Z,19.42
2022-10-23T18:06:50.468Z,19.40
2022-10-23T18:09:19.399Z,19.52
2022-10-23T18:11:48.470Z,19.67
2022-10-23T18:14:18.194Z,19.80
2022-10-23T18:16:46.952Z,19.83
2022-10-23T18:19:18.452Z,19.91
2022-10-23T18:21:46.017Z,20.00
2022-10-23T18:24:13.735Z,19.99
2022-10-23T18:26:42.262Z,19.97
2022-10-23T18:29:17.302Z,19.97
2022-10-23T18:31:47.965Z,19.96
2022-10-23T18:34:21.663Z,20.16
2022-10-23T18:36:50.373Z,20.20
2022-10-23T18:39:22.203Z,20.22
2022-10-23T18:41:55.671Z,20.20
2022-10-23T18:44:24.651Z,19.99
2022-10-23T18:46:52.093Z,20.05
2022-10-23T18:49:20.483Z,19.91
2022-10-23T18:51:49.717Z,19.78
2022-10-23T18:54:19.873Z,19.83
2022-10-23T18:56:47.600Z,19.75
2022-10-23T18:59:17.852Z,19.58
2022-10-23T19:01:45.790Z,19.47
2022-10-23T19:04:15.867Z,19.38
2022-10-23T19:06:44.884Z,19.50
2022-10-23T19:09:16.013Z,19.30
2022-10-23T19:11:43.552Z,19.10
2022-10-23T19:14:11.138Z,19.24
2022-10-23T19:16:42.823Z,19.37
2022-10-23T19:19:21.180Z,19.52
2022-10-23T19:21:50.193Z,19.42
2022-10-23T19:24:24.859Z,19.58
2022-10-23T19:26:52.693Z,19.63
2022-10-23T19:29:23.083Z,19.67
2022-10-23T19:31:51.664Z,19.58
2022-10-23T19:34:20.410Z,19.43
2022-10-23T19:36:49.232Z,19.37
2022-10-23T19:39:17.105Z,19.31
2022-10-23T19:41:45.937Z,19.22
2022-10-23T19:44:14.693Z,18.92
2022-10-23T19:46:42.021Z,18.80
2022-10-23T19:49:10.053Z,18.73
2022-10-23T19:51:38.163Z,18.75
2022-10-23T19:54:05.879Z,18.84
2022-10-23T19:56:33.255Z,18.79
2022-10-23T19:59:00.472Z,18.91
2022-10-23T20:01:28.191Z,18.91
2022-10-23T20:03:55.735Z,18.88
2022-10-23T20:06:30.852Z,18.96
2022-10-23T20:08:58.585Z,18.82
2022-10-23T20:11:29.367Z,18.80
2022-10-23T20:13:57.465Z,18.87
2022-10-23T20:16:45.488Z,18.87
2022-10-23T20:21:49.609Z,18.66
2022-10-23T20:24:18.925Z,18.75
2022-10-23T20:26:54.476Z,18.57
2022-10-23T20:29:23.423Z,18.79
2022-10-23T20:31:51.334Z,18.75
2022-10-23T20:34:20.146Z,18.82
2022-10-23T20:36:49.502Z,18.56
2022-10-23T20:39:25.437Z,18.37
2022-10-23T20:41:55.235Z,18.76
2022-10-23T20:44:23.630Z,18.88
2022-10-23T20:46:52.613Z,18.86
2022-10-23T20:49:20.020Z,18.48
2022-10-23T20:51:55.080Z,18.38
2022-10-23T20:54:25.481Z,18.36
2022-10-23T20:56:52.784Z,18.36
2022-10-23T20:59:21.244Z,18.51
2022-10-23T21:01:52.760Z,18.63
2022-10-23T21:04:24.822Z,18.56
2022-10-23T21:07:11.142Z,18.46
2022-10-23T21:09:40.256Z,18.43
2022-10-23T21:12:09.456Z,18.45
2022-10-23T21:14:37.900Z,18.44
2022-10-23T21:17:05.806Z,18.45
2022-10-23T21:19:33.460Z,18.59
2022-10-23T21:22:01.366Z,18.58
2022-10-23T21:24:29.024Z,18.56
2022-10-23T21:26:56.248Z,18.45
2022-10-23T21:29:23.485Z,18.37
2022-10-23T21:31:59.231Z,18.36
2022-10-23T21:34:27.697Z,18.46
2022-10-23T21:39:44.026Z,18.27
2022-10-23T21:42:12.955Z,18.09
2022-10-23T21:44:43.490Z,18.37
2022-10-23T21:47:11.159Z,18.25
2022-10-23T21:49:38.463Z,18.28
2022-10-23T21:52:05.893Z,18.24
2022-10-23T21:54:33.757Z,18.28
2022-10-23T21:57:03.127Z,18.43
